BAW375 LFBO-EGLL
Flight info
| Callsign | BAW375 |
|---|---|
| Flight time | 1h 31m |
| Altitude | 34000 |
| Route | LACOU DCT CHALA DCT CNA DCT MANAK DCT EPAPU DCT RINSO DCT EKRAS DCT REVTU DCT BOLRO UP87 ROXOG |
| Aircraft | A320/M-SDE3FGHIRWY/LB1 |
Departure
| Time | 2026-04-30 20:32 |
|---|---|
| Airport | Toulouse-Blagnac Airport (LFBO) |
Arrival
| Time | 2026-04-30 22:03 |
|---|---|
| Airport | London Heathrow Airport (EGLL) |
| Time | Latitude | Longitude | Altitude | Speed | Heading |
|---|---|---|---|---|---|
| 2026-04-30 20:08 | 43.63194 | 1.36939 | 502 ft | 0 kts | 73° |
| 2026-04-30 20:20 | 43.63194 | 1.36938 | 501 ft | 0 kts | 73° |
| 2026-04-30 20:23 | 43.63187 | 1.36908 | 501 ft | 4 kts | 67° |
| 2026-04-30 20:24 | 43.63175 | 1.36875 | 501 ft | 4 kts | 55° |
| 2026-04-30 20:24 | 43.63157 | 1.36848 | 501 ft | 4 kts | 23° |
| 2026-04-30 20:24 | 43.63140 | 1.36845 | 501 ft | 1 kts | 338° |
| 2026-04-30 20:24 | 43.63137 | 1.36847 | 501 ft | 1 kts | 338° |
| 2026-04-30 20:26 | 43.63148 | 1.36841 | 501 ft | 5 kts | 338° |
| 2026-04-30 20:27 | 43.63278 | 1.36732 | 501 ft | 14 kts | 301° |
| 2026-04-30 20:27 | 43.63324 | 1.36506 | 500 ft | 16 kts | 323° |
| 2026-04-30 20:28 | 43.63514 | 1.36308 | 500 ft | 18 kts | 323° |
| 2026-04-30 20:28 | 43.63713 | 1.36099 | 499 ft | 17 kts | 322° |
| 2026-04-30 20:29 | 43.63805 | 1.35912 | 490 ft | 10 kts | 232° |
| 2026-04-30 20:30 | 43.63780 | 1.35869 | 494 ft | 6 kts | 233° |
| 2026-04-30 20:30 | 43.63659 | 1.35848 | 500 ft | 19 kts | 143° |
| 2026-04-30 20:31 | 43.61955 | 1.37623 | 785 ft | 154 kts | 142° |
| 2026-04-30 20:32 | 43.58801 | 1.37961 | 2708 ft | 182 kts | 216° |
| 2026-04-30 20:32 | 43.57983 | 1.34677 | 3915 ft | 199 kts | 279° |
| 2026-04-30 20:33 | 43.58577 | 1.32884 | 4309 ft | 216 kts | 310° |
| 2026-04-30 20:33 | 43.61321 | 1.31580 | 5627 ft | 215 kts | 6° |
| 2026-04-30 20:33 | 43.62861 | 1.31721 | 6150 ft | 232 kts | 0° |
| 2026-04-30 20:34 | 43.66404 | 1.31355 | 7055 ft | 274 kts | 354° |
| 2026-04-30 20:34 | 43.70074 | 1.29744 | 8696 ft | 283 kts | 333° |
| 2026-04-30 20:35 | 43.71857 | 1.28535 | 9590 ft | 287 kts | 333° |
| 2026-04-30 20:35 | 43.73667 | 1.27334 | 10400 ft | 293 kts | 334° |
| 2026-04-30 20:35 | 43.77637 | 1.24742 | 10992 ft | 336 kts | 334° |
| 2026-04-30 20:36 | 43.79780 | 1.23347 | 11606 ft | 344 kts | 334° |
| 2026-04-30 20:36 | 43.81959 | 1.21926 | 12303 ft | 349 kts | 333° |
| 2026-04-30 20:36 | 43.86411 | 1.19013 | 13706 ft | 358 kts | 333° |
| 2026-04-30 20:37 | 43.88651 | 1.17547 | 14348 ft | 363 kts | 333° |
| 2026-04-30 20:37 | 43.90942 | 1.16045 | 14968 ft | 366 kts | 333° |
| 2026-04-30 20:37 | 43.93257 | 1.14529 | 15598 ft | 370 kts | 333° |
| 2026-04-30 20:37 | 43.95593 | 1.12998 | 16222 ft | 373 kts | 333° |
| 2026-04-30 20:38 | 43.97948 | 1.11449 | 16837 ft | 377 kts | 332° |
| 2026-04-30 20:38 | 44.00333 | 1.09878 | 17464 ft | 380 kts | 332° |
| 2026-04-30 20:38 | 44.02731 | 1.08296 | 18066 ft | 384 kts | 332° |
| 2026-04-30 20:39 | 44.07597 | 1.05087 | 19229 ft | 390 kts | 332° |
| 2026-04-30 20:39 | 44.10061 | 1.03457 | 19819 ft | 393 kts | 332° |
| 2026-04-30 20:39 | 44.12537 | 1.01815 | 20416 ft | 395 kts | 332° |
| 2026-04-30 20:40 | 44.17525 | 0.98504 | 21546 ft | 400 kts | 331° |
| 2026-04-30 20:40 | 44.20041 | 0.96835 | 22093 ft | 402 kts | 331° |
| 2026-04-30 20:40 | 44.22573 | 0.95156 | 22608 ft | 404 kts | 331° |
| 2026-04-30 20:41 | 44.27690 | 0.91760 | 23668 ft | 409 kts | 330° |
| 2026-04-30 20:41 | 44.30267 | 0.90046 | 24118 ft | 412 kts | 330° |
| 2026-04-30 20:41 | 44.32838 | 0.88275 | 24560 ft | 413 kts | 329° |
| 2026-04-30 20:41 | 44.35400 | 0.86446 | 25005 ft | 415 kts | 328° |
| 2026-04-30 20:42 | 44.37962 | 0.84579 | 25421 ft | 416 kts | 328° |
| 2026-04-30 20:42 | 44.40542 | 0.82690 | 25854 ft | 419 kts | 328° |
| 2026-04-30 20:42 | 44.45736 | 0.78908 | 26676 ft | 423 kts | 328° |
| 2026-04-30 20:43 | 44.48360 | 0.77013 | 27073 ft | 426 kts | 328° |
| 2026-04-30 20:43 | 44.51001 | 0.75111 | 27490 ft | 428 kts | 329° |
| 2026-04-30 20:43 | 44.53667 | 0.73193 | 27893 ft | 431 kts | 328° |
| 2026-04-30 20:44 | 44.59023 | 0.69320 | 28715 ft | 436 kts | 328° |
| 2026-04-30 20:44 | 44.61729 | 0.67354 | 29118 ft | 438 kts | 328° |
| 2026-04-30 20:44 | 44.67175 | 0.63403 | 29909 ft | 443 kts | 329° |
| 2026-04-30 20:45 | 44.72642 | 0.59431 | 30625 ft | 447 kts | 329° |
| 2026-04-30 20:45 | 44.75407 | 0.57416 | 31021 ft | 447 kts | 329° |
| 2026-04-30 20:45 | 44.78162 | 0.55406 | 31514 ft | 445 kts | 329° |
| 2026-04-30 20:46 | 44.86373 | 0.49418 | 33011 ft | 440 kts | 329° |
| 2026-04-30 20:46 | 44.89084 | 0.47434 | 33503 ft | 439 kts | 329° |
| 2026-04-30 20:47 | 44.94493 | 0.43468 | 34162 ft | 438 kts | 329° |
| 2026-04-30 20:47 | 44.97194 | 0.41481 | 34186 ft | 436 kts | 329° |
| 2026-04-30 20:48 | 45.05263 | 0.35542 | 34184 ft | 437 kts | 329° |
| 2026-04-30 20:48 | 45.10661 | 0.31551 | 34174 ft | 439 kts | 330° |
| 2026-04-30 20:49 | 45.15172 | 0.28216 | 34174 ft | 440 kts | 330° |
| 2026-04-30 20:50 | 45.23327 | 0.22181 | 34173 ft | 442 kts | 330° |
| 2026-04-30 20:50 | 45.28778 | 0.18128 | 34168 ft | 442 kts | 330° |
| 2026-04-30 20:51 | 45.34190 | 0.13987 | 34175 ft | 441 kts | 326° |
| 2026-04-30 20:51 | 45.38817 | 0.08327 | 34173 ft | 440 kts | 314° |
| 2026-04-30 20:51 | 45.40963 | 0.05215 | 34176 ft | 440 kts | 314° |
| 2026-04-30 20:52 | 45.45257 | -0.00981 | 34172 ft | 440 kts | 314° |
| 2026-04-30 20:53 | 45.51690 | -0.10311 | 34174 ft | 440 kts | 314° |
| 2026-04-30 20:53 | 45.55934 | -0.16504 | 34178 ft | 439 kts | 314° |
| 2026-04-30 20:54 | 45.62359 | -0.25893 | 34177 ft | 438 kts | 315° |
| 2026-04-30 20:55 | 45.69056 | -0.34646 | 34182 ft | 437 kts | 322° |
| 2026-04-30 20:55 | 45.73833 | -0.40010 | 34172 ft | 437 kts | 322° |
| 2026-04-30 20:56 | 45.80982 | -0.48091 | 34183 ft | 436 kts | 322° |
| 2026-04-30 20:57 | 45.88122 | -0.56177 | 34184 ft | 435 kts | 322° |
| 2026-04-30 20:57 | 45.92866 | -0.61572 | 34166 ft | 435 kts | 322° |
| 2026-04-30 20:58 | 45.99972 | -0.69668 | 34173 ft | 434 kts | 322° |
| 2026-04-30 20:58 | 46.04702 | -0.75082 | 34173 ft | 434 kts | 322° |
| 2026-04-30 20:59 | 46.11780 | -0.83182 | 34169 ft | 433 kts | 322° |
| 2026-04-30 21:00 | 46.21405 | -0.93454 | 34156 ft | 431 kts | 335° |
| 2026-04-30 21:01 | 46.27111 | -0.95949 | 34148 ft | 430 kts | 349° |
| 2026-04-30 21:01 | 46.30043 | -0.96822 | 34156 ft | 430 kts | 348° |
| 2026-04-30 21:02 | 46.38847 | -0.99537 | 34142 ft | 432 kts | 348° |
| 2026-04-30 21:02 | 46.44723 | -1.01354 | 34142 ft | 433 kts | 348° |
| 2026-04-30 21:03 | 46.50621 | -1.03174 | 34139 ft | 433 kts | 348° |
| 2026-04-30 21:03 | 46.56516 | -1.05000 | 34148 ft | 434 kts | 348° |
| 2026-04-30 21:04 | 46.62428 | -1.06840 | 34161 ft | 434 kts | 348° |
| 2026-04-30 21:04 | 46.71303 | -1.09596 | 34155 ft | 436 kts | 348° |
| 2026-04-30 21:05 | 46.77243 | -1.11437 | 34157 ft | 436 kts | 348° |
| 2026-04-30 21:05 | 46.83180 | -1.13286 | 34156 ft | 437 kts | 348° |
| 2026-04-30 21:06 | 46.89125 | -1.15141 | 34152 ft | 437 kts | 348° |
| 2026-04-30 21:06 | 46.95085 | -1.17008 | 34146 ft | 438 kts | 348° |
| 2026-04-30 21:07 | 47.01041 | -1.18882 | 34145 ft | 438 kts | 348° |
| 2026-04-30 21:07 | 47.07015 | -1.20763 | 34146 ft | 439 kts | 348° |
| 2026-04-30 21:08 | 47.12950 | -1.22646 | 34151 ft | 439 kts | 348° |
| 2026-04-30 21:08 | 47.18927 | -1.24544 | 34149 ft | 440 kts | 348° |
| 2026-04-30 21:09 | 47.24909 | -1.26420 | 34148 ft | 440 kts | 348° |
| 2026-04-30 21:09 | 47.30897 | -1.28323 | 34147 ft | 441 kts | 348° |
| 2026-04-30 21:10 | 47.36891 | -1.30240 | 34145 ft | 441 kts | 348° |
| 2026-04-30 21:10 | 47.42900 | -1.32166 | 34144 ft | 442 kts | 348° |
| 2026-04-30 21:11 | 47.48909 | -1.34076 | 34144 ft | 442 kts | 348° |
| 2026-04-30 21:11 | 47.54934 | -1.36003 | 34146 ft | 443 kts | 348° |
| 2026-04-30 21:12 | 47.60956 | -1.37941 | 34146 ft | 443 kts | 348° |
| 2026-04-30 21:12 | 47.66993 | -1.39891 | 34147 ft | 444 kts | 348° |
| 2026-04-30 21:13 | 47.73075 | -1.41343 | 34149 ft | 443 kts | 358° |
| 2026-04-30 21:13 | 47.76061 | -1.41559 | 34151 ft | 443 kts | 358° |
| 2026-04-30 21:14 | 47.82113 | -1.41999 | 34145 ft | 435 kts | 358° |
| 2026-04-30 21:14 | 47.88234 | -1.42473 | 34143 ft | 444 kts | 358° |
| 2026-04-30 21:15 | 47.94422 | -1.42949 | 34142 ft | 445 kts | 358° |
| 2026-04-30 21:15 | 48.00576 | -1.43428 | 34141 ft | 446 kts | 358° |
| 2026-04-30 21:16 | 48.06770 | -1.43888 | 34141 ft | 446 kts | 358° |
| 2026-04-30 21:16 | 48.12974 | -1.44316 | 34136 ft | 446 kts | 358° |
| 2026-04-30 21:17 | 48.19171 | -1.44739 | 34136 ft | 446 kts | 358° |
| 2026-04-30 21:17 | 48.25371 | -1.45187 | 34139 ft | 446 kts | 357° |
| 2026-04-30 21:18 | 48.31582 | -1.45645 | 34139 ft | 447 kts | 357° |
| 2026-04-30 21:18 | 48.37795 | -1.46106 | 34137 ft | 448 kts | 357° |
| 2026-04-30 21:19 | 48.44023 | -1.46556 | 34140 ft | 448 kts | 357° |
| 2026-04-30 21:19 | 48.50245 | -1.47000 | 34147 ft | 448 kts | 357° |
| 2026-04-30 21:20 | 48.56466 | -1.47454 | 34146 ft | 448 kts | 357° |
| 2026-04-30 21:20 | 48.62695 | -1.47904 | 34146 ft | 447 kts | 357° |
| 2026-04-30 21:21 | 48.68874 | -1.48359 | 34149 ft | 447 kts | 357° |
| 2026-04-30 21:22 | 48.78197 | -1.49061 | 34149 ft | 447 kts | 357° |
| 2026-04-30 21:23 | 48.90618 | -1.50149 | 34143 ft | 447 kts | 350° |
| 2026-04-30 21:23 | 48.99748 | -1.53051 | 34141 ft | 447 kts | 348° |
| 2026-04-30 21:24 | 49.05827 | -1.55004 | 34138 ft | 447 kts | 348° |
| 2026-04-30 21:24 | 49.11906 | -1.56966 | 34139 ft | 447 kts | 348° |
| 2026-04-30 21:25 | 49.21033 | -1.59916 | 34139 ft | 447 kts | 348° |
| 2026-04-30 21:26 | 49.30163 | -1.62872 | 34138 ft | 447 kts | 348° |
| 2026-04-30 21:27 | 49.39249 | -1.65833 | 34137 ft | 447 kts | 348° |
| 2026-04-30 21:27 | 49.45331 | -1.67820 | 34137 ft | 447 kts | 348° |
| 2026-04-30 21:28 | 49.54468 | -1.70817 | 34138 ft | 448 kts | 347° |
| 2026-04-30 21:28 | 49.60605 | -1.72363 | 34138 ft | 448 kts | 358° |
| 2026-04-30 21:29 | 49.63716 | -1.72225 | 34135 ft | 448 kts | 4° |
| 2026-04-30 21:30 | 49.79287 | -1.70902 | 34128 ft | 449 kts | 3° |
| 2026-04-30 21:31 | 49.94914 | -1.69572 | 33883 ft | 452 kts | 3° |
| 2026-04-30 21:32 | 50.01158 | -1.68520 | 33331 ft | 453 kts | 14° |
| 2026-04-30 21:32 | 50.04190 | -1.67137 | 33057 ft | 454 kts | 18° |
| 2026-04-30 21:32 | 50.07203 | -1.65673 | 32731 ft | 453 kts | 18° |
| 2026-04-30 21:32 | 50.10200 | -1.64221 | 32146 ft | 450 kts | 18° |
| 2026-04-30 21:33 | 50.13145 | -1.62793 | 31578 ft | 448 kts | 18° |
| 2026-04-30 21:33 | 50.19060 | -1.59926 | 30442 ft | 443 kts | 18° |
| 2026-04-30 21:33 | 50.21995 | -1.58498 | 29823 ft | 441 kts | 19° |
| 2026-04-30 21:34 | 50.24908 | -1.57076 | 29248 ft | 437 kts | 19° |
| 2026-04-30 21:34 | 50.30666 | -1.54266 | 28125 ft | 430 kts | 19° |
| 2026-04-30 21:34 | 50.33505 | -1.52873 | 27567 ft | 427 kts | 19° |
| 2026-04-30 21:35 | 50.36326 | -1.51490 | 27009 ft | 424 kts | 19° |
| 2026-04-30 21:35 | 50.39130 | -1.50112 | 26469 ft | 421 kts | 19° |
| 2026-04-30 21:35 | 50.41928 | -1.48739 | 25921 ft | 419 kts | 19° |
| 2026-04-30 21:35 | 50.44705 | -1.47376 | 25400 ft | 418 kts | 20° |
| 2026-04-30 21:36 | 50.47471 | -1.46015 | 24878 ft | 416 kts | 20° |
| 2026-04-30 21:36 | 50.50227 | -1.44651 | 24377 ft | 415 kts | 20° |
| 2026-04-30 21:37 | 50.58028 | -1.39252 | 22877 ft | 403 kts | 33° |
| 2026-04-30 21:37 | 50.60475 | -1.37146 | 22410 ft | 399 kts | 32° |
| 2026-04-30 21:37 | 50.62901 | -1.35065 | 21950 ft | 396 kts | 32° |
| 2026-04-30 21:37 | 50.65307 | -1.33000 | 21469 ft | 393 kts | 32° |
| 2026-04-30 21:38 | 50.67696 | -1.30951 | 20990 ft | 390 kts | 32° |
| 2026-04-30 21:38 | 50.70078 | -1.28910 | 20494 ft | 388 kts | 32° |
| 2026-04-30 21:38 | 50.72436 | -1.26882 | 19996 ft | 385 kts | 32° |
| 2026-04-30 21:38 | 50.74786 | -1.24854 | 19485 ft | 383 kts | 32° |
| 2026-04-30 21:39 | 50.77106 | -1.22804 | 18955 ft | 381 kts | 34° |
| 2026-04-30 21:39 | 50.79359 | -1.20620 | 18431 ft | 379 kts | 36° |
| 2026-04-30 21:39 | 50.81559 | -1.18342 | 17854 ft | 377 kts | 38° |
| 2026-04-30 21:39 | 50.83695 | -1.16060 | 17337 ft | 374 kts | 38° |
| 2026-04-30 21:40 | 50.85840 | -1.13760 | 16810 ft | 371 kts | 38° |
| 2026-04-30 21:40 | 50.88008 | -1.11460 | 16281 ft | 370 kts | 37° |
| 2026-04-30 21:40 | 50.89428 | -1.09973 | 15936 ft | 368 kts | 37° |
| 2026-04-30 21:40 | 50.92254 | -1.07038 | 15243 ft | 366 kts | 37° |
| 2026-04-30 21:41 | 50.94384 | -1.04831 | 14716 ft | 365 kts | 36° |
| 2026-04-30 21:41 | 50.96505 | -1.02633 | 14191 ft | 364 kts | 36° |
| 2026-04-30 21:41 | 50.98626 | -1.00433 | 13631 ft | 363 kts | 36° |
| 2026-04-30 21:41 | 51.00648 | -0.98089 | 13111 ft | 357 kts | 45° |
| 2026-04-30 21:42 | 51.02330 | -0.95259 | 12697 ft | 349 kts | 52° |
| 2026-04-30 21:42 | 51.03393 | -0.93361 | 12427 ft | 346 kts | 51° |
| 2026-04-30 21:42 | 51.04988 | -0.90527 | 12010 ft | 343 kts | 51° |
| 2026-04-30 21:42 | 51.06569 | -0.87719 | 11601 ft | 340 kts | 51° |
| 2026-04-30 21:43 | 51.08139 | -0.84927 | 11196 ft | 337 kts | 51° |
| 2026-04-30 21:43 | 51.09699 | -0.82149 | 10795 ft | 335 kts | 51° |
| 2026-04-30 21:43 | 51.11230 | -0.79419 | 10387 ft | 323 kts | 51° |
| 2026-04-30 21:43 | 51.12671 | -0.76846 | 10189 ft | 303 kts | 51° |
| 2026-04-30 21:44 | 51.14044 | -0.74390 | 9902 ft | 292 kts | 51° |
| 2026-04-30 21:44 | 51.15517 | -0.72123 | 9785 ft | 297 kts | 34° |
| 2026-04-30 21:44 | 51.17434 | -0.70905 | 9505 ft | 300 kts | 9° |
| 2026-04-30 21:44 | 51.19511 | -0.70978 | 9197 ft | 301 kts | 353° |
| 2026-04-30 21:45 | 51.21581 | -0.71464 | 8885 ft | 300 kts | 351° |
| 2026-04-30 21:45 | 51.23632 | -0.71984 | 8551 ft | 298 kts | 351° |
| 2026-04-30 21:45 | 51.25683 | -0.72506 | 8181 ft | 298 kts | 351° |
| 2026-04-30 21:45 | 51.27730 | -0.73027 | 7832 ft | 298 kts | 351° |
| 2026-04-30 21:46 | 51.29770 | -0.73546 | 7486 ft | 297 kts | 351° |
| 2026-04-30 21:46 | 51.31786 | -0.74057 | 7140 ft | 288 kts | 351° |
| 2026-04-30 21:46 | 51.33728 | -0.74549 | 6805 ft | 277 kts | 351° |
| 2026-04-30 21:46 | 51.35599 | -0.75021 | 6456 ft | 268 kts | 351° |
| 2026-04-30 21:47 | 51.37415 | -0.75479 | 6109 ft | 259 kts | 351° |
| 2026-04-30 21:47 | 51.39168 | -0.75921 | 5756 ft | 253 kts | 351° |
| 2026-04-30 21:47 | 51.40900 | -0.76357 | 5404 ft | 251 kts | 351° |
| 2026-04-30 21:47 | 51.42639 | -0.76584 | 5012 ft | 249 kts | 5° |
| 2026-04-30 21:48 | 51.44325 | -0.75970 | 4613 ft | 251 kts | 25° |
| 2026-04-30 21:48 | 51.45807 | -0.74524 | 4224 ft | 249 kts | 45° |
| 2026-04-30 21:48 | 51.46896 | -0.72461 | 3835 ft | 245 kts | 64° |
| 2026-04-30 21:48 | 51.47520 | -0.69966 | 3483 ft | 238 kts | 83° |
| 2026-04-30 21:49 | 51.47657 | -0.67373 | 3171 ft | 230 kts | 95° |
| 2026-04-30 21:49 | 51.47670 | -0.64816 | 2864 ft | 228 kts | 95° |
| 2026-04-30 21:49 | 51.47684 | -0.62289 | 2569 ft | 224 kts | 95° |
| 2026-04-30 21:49 | 51.47698 | -0.59854 | 2512 ft | 212 kts | 95° |
| 2026-04-30 21:50 | 51.47711 | -0.57563 | 2503 ft | 201 kts | 95° |
| 2026-04-30 21:50 | 51.47719 | -0.55310 | 2507 ft | 204 kts | 96° |
| 2026-04-30 21:50 | 51.47728 | -0.53030 | 2510 ft | 204 kts | 96° |
| 2026-04-30 21:50 | 51.47739 | -0.50763 | 2509 ft | 203 kts | 95° |
| 2026-04-30 21:51 | 51.47748 | -0.48494 | 2512 ft | 204 kts | 96° |
| 2026-04-30 21:51 | 51.47757 | -0.46207 | 2513 ft | 205 kts | 95° |
| 2026-04-30 21:51 | 51.47772 | -0.43917 | 2509 ft | 206 kts | 92° |
| 2026-04-30 21:51 | 51.48237 | -0.41714 | 2516 ft | 219 kts | 60° |
| 2026-04-30 21:52 | 51.49430 | -0.40116 | 2762 ft | 229 kts | 38° |
| 2026-04-30 21:52 | 51.50804 | -0.38776 | 2971 ft | 233 kts | 36° |
| 2026-04-30 21:52 | 51.52198 | -0.37457 | 3015 ft | 232 kts | 36° |
| 2026-04-30 21:52 | 51.53593 | -0.36147 | 3013 ft | 233 kts | 36° |
| 2026-04-30 21:53 | 51.55092 | -0.35136 | 3010 ft | 240 kts | 13° |
| 2026-04-30 21:53 | 51.56764 | -0.35273 | 3010 ft | 246 kts | 343° |
| 2026-04-30 21:53 | 51.58215 | -0.36685 | 3013 ft | 246 kts | 316° |
| 2026-04-30 21:53 | 51.59430 | -0.38622 | 3013 ft | 246 kts | 311° |
| 2026-04-30 21:54 | 51.60387 | -0.40858 | 3013 ft | 240 kts | 284° |
| 2026-04-30 21:54 | 51.60735 | -0.43448 | 3010 ft | 236 kts | 272° |
| 2026-04-30 21:54 | 51.60908 | -0.46053 | 3014 ft | 233 kts | 265° |
| 2026-04-30 21:54 | 51.60899 | -0.48658 | 3012 ft | 232 kts | 262° |
| 2026-04-30 21:55 | 51.60855 | -0.51242 | 3012 ft | 232 kts | 262° |
| 2026-04-30 21:55 | 51.60806 | -0.53840 | 3010 ft | 232 kts | 262° |
| 2026-04-30 21:55 | 51.60753 | -0.56395 | 3013 ft | 232 kts | 262° |
| 2026-04-30 21:55 | 51.60701 | -0.58982 | 3012 ft | 231 kts | 262° |
| 2026-04-30 21:56 | 51.60647 | -0.61572 | 2942 ft | 233 kts | 262° |
| 2026-04-30 21:56 | 51.60594 | -0.64171 | 2712 ft | 231 kts | 262° |
| 2026-04-30 21:56 | 51.60454 | -0.66707 | 2551 ft | 223 kts | 246° |
| 2026-04-30 21:56 | 51.59656 | -0.68695 | 2509 ft | 207 kts | 211° |
| 2026-04-30 21:57 | 51.58407 | -0.69759 | 2516 ft | 204 kts | 201° |
| 2026-04-30 21:57 | 51.57362 | -0.71355 | 2505 ft | 217 kts | 233° |
| 2026-04-30 21:57 | 51.56591 | -0.73434 | 2506 ft | 213 kts | 221° |
| 2026-04-30 21:57 | 51.55393 | -0.74606 | 2508 ft | 199 kts | 189° |
| 2026-04-30 21:58 | 51.54028 | -0.74959 | 2510 ft | 198 kts | 182° |
| 2026-04-30 21:58 | 51.52662 | -0.75187 | 2513 ft | 197 kts | 181° |
| 2026-04-30 21:58 | 51.51300 | -0.75323 | 2508 ft | 193 kts | 172° |
| 2026-04-30 21:58 | 51.50055 | -0.74873 | 2508 ft | 175 kts | 155° |
| 2026-04-30 21:59 | 51.49049 | -0.73909 | 2522 ft | 166 kts | 141° |
| 2026-04-30 21:59 | 51.48287 | -0.72551 | 2510 ft | 164 kts | 126° |
| 2026-04-30 21:59 | 51.47801 | -0.70888 | 2514 ft | 167 kts | 111° |
| 2026-04-30 22:00 | 51.47655 | -0.67086 | 2359 ft | 172 kts | 96° |
| 2026-04-30 22:00 | 51.47679 | -0.63409 | 1950 ft | 159 kts | 96° |
| 2026-04-30 22:00 | 51.47689 | -0.61658 | 1733 ft | 151 kts | 96° |
| 2026-04-30 22:01 | 51.47699 | -0.60054 | 1542 ft | 137 kts | 96° |
| 2026-04-30 22:01 | 51.47705 | -0.58579 | 1372 ft | 130 kts | 95° |
| 2026-04-30 22:01 | 51.47711 | -0.57139 | 1192 ft | 128 kts | 94° |
| 2026-04-30 22:01 | 51.47717 | -0.55708 | 1013 ft | 128 kts | 91° |
| 2026-04-30 22:02 | 51.47723 | -0.54321 | 833 ft | 126 kts | 91° |
| 2026-04-30 22:02 | 51.47730 | -0.52901 | 665 ft | 125 kts | 89° |
| 2026-04-30 22:02 | 51.47736 | -0.51520 | 505 ft | 125 kts | 88° |
| 2026-04-30 22:02 | 51.47740 | -0.50123 | 296 ft | 125 kts | 87° |
| 2026-04-30 22:03 | 51.47746 | -0.48728 | 121 ft | 125 kts | 89° |
| 2026-04-30 22:03 | 51.47754 | -0.47486 | 83 ft | 90 kts | 90° |
| 2026-04-30 22:03 | 51.47758 | -0.46720 | 93 ft | 53 kts | 89° |
| 2026-04-30 22:03 | 51.47758 | -0.46267 | 90 ft | 29 kts | 91° |
| 2026-04-30 22:04 | 51.47684 | -0.46131 | 87 ft | 16 kts | 144° |
| 2026-04-30 22:04 | 51.47592 | -0.46080 | 88 ft | 10 kts | 226° |
| 2026-04-30 22:04 | 51.47591 | -0.46304 | 88 ft | 12 kts | 271° |
| 2026-04-30 22:05 | 51.47595 | -0.46451 | 90 ft | 14 kts | 274° |
| 2026-04-30 22:05 | 51.47597 | -0.46626 | 89 ft | 17 kts | 269° |
| 2026-04-30 22:05 | 51.47589 | -0.46823 | 88 ft | 18 kts | 260° |
| 2026-04-30 22:05 | 51.47584 | -0.46999 | 87 ft | 16 kts | 269° |
| 2026-04-30 22:06 | 51.47583 | -0.47196 | 88 ft | 20 kts | 270° |
| 2026-04-30 22:06 | 51.47582 | -0.47690 | 87 ft | 21 kts | 270° |
| 2026-04-30 22:06 | 51.47585 | -0.47930 | 88 ft | 20 kts | 271° |
| 2026-04-30 22:07 | 51.47581 | -0.48135 | 89 ft | 17 kts | 269° |
| 2026-04-30 22:07 | 51.47579 | -0.48336 | 90 ft | 17 kts | 269° |
| 2026-04-30 22:07 | 51.47527 | -0.48477 | 87 ft | 18 kts | 186° |
| 2026-04-30 22:07 | 51.47391 | -0.48476 | 85 ft | 19 kts | 179° |
| 2026-04-30 22:08 | 51.47263 | -0.48474 | 85 ft | 17 kts | 180° |
| 2026-04-30 22:08 | 51.47152 | -0.48476 | 85 ft | 15 kts | 179° |
| 2026-04-30 22:08 | 51.47089 | -0.48492 | 88 ft | 6 kts | 238° |
| 2026-04-30 22:08 | 51.47088 | -0.48559 | 85 ft | 5 kts | 271° |
| 2026-04-30 22:09 | 51.47088 | -0.48579 | 85 ft | 0 kts | 270° |